首页
METAR-TAF:

METAR-TAF

机场 :

Coningsby, 英格兰

纬度: 53-05N, 经度: 000-10W, 海拔: 7米

当前天气观测

该预报发布于46分钟前的04:50 UTC
风速5节,风向
温度 20°C
湿度 78%
气压 1020 hPa
能见度10公里或以上
1500米以下无云,无积雨云

METAR: EGXC 080450Z 01005KT CAVOK 20/16 Q1020 RMK BLU

时间: 06:36 (05:36 UTC)

预报

该预报发布于4小时和16分钟前的01:20 UTC
预报有效从08日的 03点(UTC)到 08日的 21点(UTC)
风速7节,风向北转西北
能见度10公里或以上
1500米以下无云,无积雨云
成为
从 08日的 17点(UTC)到 08日的 20点(UTC)
多云层高于800英尺
几率 40%
从 08日的 20点(UTC)到 08日的 21点(UTC)
多云层高于600英尺

TAF: EGXC 080120Z 0803/0821 34007KT CAVOK BECMG 0817/0820 BKN008 PROB40 0820/0821 BKN006

超过4000个机场的气象观测和天气预报(METAR&TAF报告)。

可查询的气象台以黄色和红色小点在地图上表示。

将鼠标移到小点上方,可查看气象台名称。

然后点击查看天气观测和预报。

如需切换地图:点击带黑十字的绿色按钮放大地图;点击带横线的绿色按钮缩小地图;或者点击绿色箭头查看邻近地区的地图。


METAR-TAF: